Terminal Aerodrome Forecast
Issued by NWS Sioux Falls, SD

Home | Current Version | Previous Version | Text Only | Print | Product List | Glossary On
Versions: 1 2 3 4 5 6 7 8 9 10 11
789
FTUS43 KFSD 300520
TAFFSD
TAF
KFSD 300520Z 3006/0106 05012KT P6SM OVC080
     FM301100 04016G24KT P6SM VCSH OVC050
     FM301600 04021G30KT P6SM -RASN OVC030
     FM301900 03022G30KT 5SM RA OVC020
     FM302300 03019G26KT 2SM RASN OVC008=

USA.gov is the U.S. government's official web portal to all federal, state and local government web resources and services.